Decoded Metar for KFSD (SIOUX FALLS in SD, USA) (IATA:FSD) | Meteo·Mobile Aviation Weather
aviador You're here:

KFSD Decoded Metar

SIOUX FALLS in SD, USA
Report Time2018-11-12 21:56:00
UTC Time2018-11-12 22:06:51
Flight Rules vfr VFR
Wind340° at 14 kt
W.Decomp.*RWY 33: 13.9 kt HW 1.2 kt RCW
RWY 03: 8.0 kt HW 11.5 kt LCW
RWY 27: 5.9 kt HW 12.7 kt RCW
W.Rank340° ranks 12
Current wind is above 340° avg. (10.9)
Visibility9999 m
Phenomena:N/A
Clouds:Broken 035 Hf
Expected CloudBase > 3,200 ft AGL from Temp-Dew spread
Ceiling3,500 ft
Temp-6°C (ISA -18)
Dew Point-14°C (54% RH)
AAT-14.3°C
QNH1033 hPa
Density Alt-1,457 ft
Elevation1,430 ft
Report Wrong Elevation
Raw Report
KFSD 122156Z 34014KT 10SM BKN035 M06/M14 A3051 RMK AO2 SLP358 CLD
HGT EST T10611144 $=

Extra information for KFSD:More info

Metar Taf Metar & Taf Last 4 Metars F.Rules Stats Wind Profile Meteogram Temp Stats Airport Information Weather charts Add Link Nearby VenuesMetar ALERT Operation Metar Decoded Social comments

AIRNAV info for KFSD